Time;durP1;ratioP1;P1;durP2;ratioP2;P2;SDS_P1;SDS_P2;PMS_P1;PMS_P2;Temp;Humidity;BMP_temperature;BMP_pressure;BME280_temperature;BME280_humidity;BME280_pressure;Samples;Min_cycle;Max_cycle;Signal;HPM_P1;HPM_P2
2024/04/17 00:01:42;0.00;0.00;0.62;0.00;0.00;0.62;2.13;1.00;;;23.90;22.20;;;;;;2047885;62;20540;-66
2024/04/17 00:04:26;0.00;0.00;0.62;0.00;0.00;0.62;1.90;1.07;;;23.90;22.20;;;;;;2051758;62;20599;-66
2024/04/17 00:07:11;0.00;0.00;0.62;0.00;0.00;0.62;1.57;0.90;;;23.90;22.20;;;;;;2052319;62;20487;-66
2024/04/17 00:09:56;0.00;0.00;0.62;0.00;0.00;0.62;4.80;1.40;;;23.90;22.20;;;;;;2051425;62;20470;-66
2024/04/17 00:12:40;0.00;0.00;0.62;0.00;0.00;0.62;2.33;1.40;;;23.90;22.20;;;;;;2052071;62;20544;-66
2024/04/17 00:15:25;0.00;0.00;0.62;0.00;0.00;0.62;1.53;0.93;;;23.90;22.20;;;;;;2052285;62;20463;-65
2024/04/17 00:18:12;0.00;0.00;0.62;0.00;0.00;0.62;1.63;1.07;;;23.90;22.20;;;;;;2046685;62;20456;-65
2024/04/17 00:20:57;0.00;0.00;0.62;0.00;0.00;0.62;2.30;1.03;;;23.90;22.20;;;;;;2046828;62;20456;-65
2024/04/17 00:23:41;0.00;0.00;0.62;0.00;0.00;0.62;1.70;1.20;;;23.90;22.20;;;;;;2043866;62;20473;-66
2024/04/17 00:26:26;0.00;0.00;0.62;0.00;0.00;0.62;1.80;1.20;;;23.90;22.20;;;;;;2047593;62;20474;-65
2024/04/17 00:29:10;0.00;0.00;0.62;0.00;0.00;0.62;2.77;1.00;;;23.90;22.30;;;;;;2051885;62;20498;-67
2024/04/17 00:31:55;0.00;0.00;0.62;0.00;0.00;0.62;2.13;1.00;;;23.90;22.20;;;;;;2051606;54;21031;-67
2024/04/17 00:34:42;0.00;0.00;0.62;0.00;0.00;0.62;2.53;1.40;;;23.90;22.20;;;;;;2052145;62;20471;-66
2024/04/17 00:37:27;0.00;0.00;0.62;0.00;0.00;0.62;4.30;1.17;;;23.90;22.20;;;;;;2052083;62;20456;-66
2024/04/17 00:40:12;0.00;0.00;0.62;0.00;0.00;0.62;1.83;1.00;;;23.90;22.20;;;;;;2051225;62;20470;-66
2024/04/17 00:42:59;0.00;0.00;0.62;0.00;0.00;0.62;2.03;1.00;;;23.90;22.20;;;;;;2052012;62;21002;-66
2024/04/17 00:45:46;0.00;0.00;0.62;0.00;0.00;0.62;1.47;0.93;;;23.90;22.20;;;;;;2051355;62;20474;-65
2024/04/17 00:48:31;0.00;0.00;0.62;0.00;0.00;0.62;1.83;1.30;;;23.90;22.20;;;;;;2051809;62;20463;-66
2024/04/17 00:51:19;0.00;0.00;0.62;0.00;0.00;0.62;1.43;0.90;;;23.90;22.20;;;;;;2052012;62;20463;-66
2024/04/17 00:54:04;0.00;0.00;0.62;0.00;0.00;0.62;1.70;0.97;;;23.90;22.30;;;;;;2051381;62;20479;-66
2024/04/17 00:56:50;0.00;0.00;0.62;0.00;0.00;0.62;1.87;0.93;;;23.90;22.30;;;;;;2052043;62;20462;-66
2024/04/17 00:59:35;0.00;0.00;0.62;0.00;0.00;0.62;1.80;1.23;;;23.90;22.20;;;;;;2052003;62;20981;-67
2024/04/17 01:02:20;0.00;0.00;0.62;0.00;0.00;0.62;2.53;1.43;;;23.90;22.30;;;;;;2051243;62;21046;-66
2024/04/17 01:05:06;0.00;0.00;0.62;0.00;0.00;0.62;2.03;1.40;;;23.90;22.30;;;;;;2047936;62;20467;-65
2024/04/17 01:07:53;0.00;0.00;0.62;0.00;0.00;0.62;1.73;1.07;;;23.90;22.30;;;;;;2051620;62;20467;-66
2024/04/17 01:10:38;0.00;0.00;0.62;0.00;0.00;0.62;1.70;1.10;;;23.90;22.30;;;;;;2049757;62;20499;-66
2024/04/17 01:13:23;0.00;0.00;0.62;0.00;0.00;0.62;1.80;1.13;;;23.80;22.20;;;;;;2052207;62;20499;-66
2024/04/17 01:16:08;0.00;0.00;0.62;0.00;0.00;0.62;4.00;1.17;;;23.80;22.20;;;;;;2051532;62;20487;-66
2024/04/17 01:18:53;0.00;0.00;0.62;0.00;0.00;0.62;2.10;1.40;;;23.80;22.20;;;;;;2052021;62;20463;-67
2024/04/17 01:21:38;0.00;0.00;0.62;0.00;0.00;0.62;3.60;1.27;;;23.80;22.20;;;;;;2052214;62;20470;-66
2024/04/17 01:24:25;0.00;0.00;0.62;0.00;0.00;0.62;2.90;1.67;;;23.80;22.20;;;;;;2051226;62;20471;-67
2024/04/17 01:27:09;0.00;0.00;0.62;0.00;0.00;0.62;2.33;1.10;;;23.80;22.20;;;;;;2051988;62;21012;-66
2024/04/17 01:29:54;0.00;0.00;0.62;0.00;0.00;0.62;2.00;1.03;;;23.80;22.20;;;;;;2051462;62;20524;-66
2024/04/17 01:32:39;0.00;0.00;0.62;0.00;0.00;0.62;1.93;1.00;;;23.80;22.20;;;;;;2051731;62;20481;-66
2024/04/17 01:35:23;0.00;0.00;0.62;0.00;0.00;0.62;2.07;1.37;;;23.80;22.20;;;;;;2052151;62;20463;-66
2024/04/17 01:38:08;0.00;0.00;0.62;0.00;0.00;0.62;2.27;1.17;;;23.80;22.20;;;;;;2051559;62;20883;-67
2024/04/17 01:40:55;0.00;0.00;0.62;0.00;0.00;0.62;1.60;0.90;;;23.80;22.20;;;;;;2051646;62;20462;-66
2024/04/17 01:43:40;0.00;0.00;0.62;0.00;0.00;0.62;1.93;1.30;;;23.80;22.30;;;;;;2052226;62;21047;-67
2024/04/17 01:46:25;0.00;0.00;0.62;0.00;0.00;0.62;2.43;1.10;;;23.80;22.20;;;;;;2046067;62;20472;-65
2024/04/17 01:49:10;0.00;0.00;0.62;0.00;0.00;0.62;1.77;1.23;;;23.80;22.20;;;;;;2048730;62;20467;-66
2024/04/17 01:51:55;0.00;0.00;0.62;0.00;0.00;0.62;2.07;1.17;;;23.80;22.20;;;;;;2052083;62;20475;-66
2024/04/17 01:54:40;0.00;0.00;0.62;0.00;0.00;0.62;1.67;1.00;;;23.80;22.80;;;;;;2051703;62;20462;-66
2024/04/17 01:57:27;0.00;0.00;0.62;0.00;0.00;0.62;3.87;1.60;;;23.80;22.20;;;;;;2051500;62;20470;-65
2024/04/17 02:00:12;0.00;0.00;0.62;0.00;0.00;0.62;1.83;1.23;;;23.80;22.30;;;;;;2051803;62;20524;-65
2024/04/17 02:02:57;0.00;0.00;0.62;0.00;0.00;0.62;2.60;1.10;;;23.80;22.20;;;;;;2050838;62;20606;-66
2024/04/17 02:05:42;0.00;0.00;0.62;0.00;0.00;0.62;2.00;1.10;;;23.80;22.30;;;;;;2052103;62;20488;-66
2024/04/17 02:08:26;0.00;0.00;0.62;0.00;0.00;0.62;2.07;1.07;;;23.80;22.30;;;;;;2051751;62;20490;-64
2024/04/17 02:11:11;0.00;0.00;0.62;0.00;0.00;0.62;2.27;1.27;;;23.80;22.30;;;;;;2051227;62;20846;-66
2024/04/17 02:13:59;0.00;0.00;0.62;0.00;0.00;0.62;2.57;1.20;;;23.80;22.30;;;;;;2052038;62;20482;-66
2024/04/17 02:16:43;0.00;0.00;0.62;0.00;0.00;0.62;3.73;1.30;;;23.80;22.30;;;;;;2050101;62;20528;-66
2024/04/17 02:19:28;0.00;0.00;0.62;0.00;0.00;0.62;1.97;1.20;;;23.80;22.30;;;;;;2051533;62;20471;-66
2024/04/17 02:22:13;0.00;0.00;0.62;0.00;0.00;0.62;3.10;1.40;;;23.70;22.20;;;;;;2052040;62;21073;-66
2024/04/17 02:24:57;0.00;0.00;0.62;0.00;0.00;0.62;2.00;1.07;;;23.70;22.20;;;;;;2046697;62;21039;-65
2024/04/17 02:27:42;0.00;0.00;0.62;0.00;0.00;0.62;2.73;1.23;;;23.80;22.30;;;;;;2052100;62;20540;-66
2024/04/17 02:30:29;0.00;0.00;0.62;0.00;0.00;0.62;1.80;1.23;;;23.70;22.20;;;;;;2051602;62;20527;-66
2024/04/17 02:33:14;0.00;0.00;0.62;0.00;0.00;0.62;2.20;1.30;;;23.70;22.20;;;;;;2051226;62;20516;-66
2024/04/17 02:35:58;0.00;0.00;0.62;0.00;0.00;0.62;2.70;1.37;;;23.70;22.20;;;;;;2052013;62;20454;-66
2024/04/17 02:38:43;0.00;0.00;0.62;0.00;0.00;0.62;2.10;1.13;;;23.70;22.20;;;;;;2051801;62;20467;-66
2024/04/17 02:41:28;0.00;0.00;0.62;0.00;0.00;0.62;1.50;1.07;;;23.70;22.20;;;;;;2051434;62;20870;-66
2024/04/17 02:44:13;0.00;0.00;0.62;0.00;0.00;0.62;2.93;1.20;;;23.70;22.20;;;;;;2052020;54;20515;-66
2024/04/17 02:47:01;0.00;0.00;0.62;0.00;0.00;0.62;3.63;1.00;;;23.70;22.20;;;;;;2051087;62;20459;-67
2024/04/17 02:49:45;0.00;0.00;0.62;0.00;0.00;0.62;1.60;0.93;;;23.70;22.20;;;;;;2051783;62;20524;-65
2024/04/17 02:52:30;0.00;0.00;0.62;0.00;0.00;0.62;1.87;1.10;;;23.70;22.20;;;;;;2051758;62;20924;-65
2024/04/17 02:55:15;0.00;0.00;0.62;0.00;0.00;0.62;2.30;1.10;;;23.70;22.20;;;;;;2051341;62;21027;-65
2024/04/17 02:58:00;0.00;0.00;0.62;0.00;0.00;0.62;2.57;1.37;;;23.70;22.70;;;;;;2051910;62;20507;-66
2024/04/17 03:00:44;0.00;0.00;0.62;0.00;0.00;0.62;3.47;1.23;;;23.70;22.20;;;;;;2051547;62;20466;-65
2024/04/17 03:03:31;0.00;0.00;0.62;0.00;0.00;0.62;4.77;1.20;;;23.70;22.20;;;;;;2051263;62;20470;-66
2024/04/17 03:06:16;0.00;0.00;0.62;0.00;0.00;0.62;3.30;1.47;;;23.70;22.20;;;;;;2051824;62;20467;-66
2024/04/17 03:09:01;0.00;0.00;0.62;0.00;0.00;0.62;1.80;1.33;;;23.70;22.20;;;;;;2051436;62;20467;-66
2024/04/17 03:11:46;0.00;0.00;0.62;0.00;0.00;0.62;1.83;1.00;;;23.70;22.20;;;;;;2046822;62;20525;-66
2024/04/17 03:14:31;0.00;0.00;0.62;0.00;0.00;0.62;2.60;1.40;;;23.70;22.20;;;;;;2047149;62;20456;-65
2024/04/17 03:17:15;0.00;0.00;0.62;0.00;0.00;0.62;2.60;1.27;;;23.70;22.20;;;;;;2048109;62;20474;-64
2024/04/17 03:20:03;0.00;0.00;0.62;0.00;0.00;0.62;2.43;1.10;;;23.70;22.20;;;;;;2052259;62;20462;-66
2024/04/17 03:22:50;0.00;0.00;0.62;0.00;0.00;0.62;2.27;1.53;;;23.70;22.20;;;;;;2052063;62;20519;-65
2024/04/17 03:25:35;0.00;0.00;0.62;0.00;0.00;0.62;2.70;1.43;;;23.60;22.10;;;;;;2051493;62;20874;-65
2024/04/17 03:28:20;0.00;0.00;0.62;0.00;0.00;0.62;3.00;1.33;;;23.70;22.20;;;;;;2052373;62;20517;-66
2024/04/17 03:31:05;0.00;0.00;0.62;0.00;0.00;0.62;1.90;1.30;;;23.70;22.10;;;;;;2051818;62;20475;-67
2024/04/17 03:33:49;0.00;0.00;0.62;0.00;0.00;0.62;2.57;1.10;;;23.60;22.00;;;;;;2052063;62;20535;-67
2024/04/17 03:36:36;0.00;0.00;0.62;0.00;0.00;0.62;5.10;1.47;;;23.60;22.10;;;;;;2052341;62;20870;-65
2024/04/17 03:39:21;0.00;0.00;0.62;0.00;0.00;0.62;2.20;1.17;;;23.60;22.10;;;;;;2051416;62;20467;-66
2024/04/17 03:42:06;0.00;0.00;0.62;0.00;0.00;0.62;1.93;1.27;;;23.60;22.00;;;;;;2052094;62;21072;-66
2024/04/17 03:44:51;0.00;0.00;0.62;0.00;0.00;0.62;2.20;1.20;;;23.60;22.10;;;;;;2052072;62;20466;-66
2024/04/17 03:47:39;0.00;0.00;0.62;0.00;0.00;0.62;1.80;1.00;;;23.60;22.00;;;;;;2051353;62;20470;-67
2024/04/17 03:50:23;0.00;0.00;0.62;0.00;0.00;0.62;2.83;1.60;;;23.60;22.00;;;;;;2052069;62;20467;-66
2024/04/17 03:53:11;0.00;0.00;0.62;0.00;0.00;0.62;2.10;1.10;;;23.60;22.60;;;;;;2051765;62;20487;-67
2024/04/17 03:55:55;0.00;0.00;0.62;0.00;0.00;0.62;2.00;1.20;;;23.60;22.00;;;;;;2051852;62;20967;-64
2024/04/17 03:58:40;0.00;0.00;0.62;0.00;0.00;0.62;3.60;1.50;;;23.60;22.00;;;;;;2052197;62;21016;-66
2024/04/17 04:01:24;0.00;0.00;0.62;0.00;0.00;0.62;2.30;1.30;;;23.60;22.00;;;;;;2051204;62;20552;-65
2024/04/17 04:04:09;0.00;0.00;0.62;0.00;0.00;0.62;2.37;1.30;;;23.60;22.00;;;;;;2052664;62;20479;-66
2024/04/17 04:06:54;0.00;0.00;0.62;0.00;0.00;0.62;2.33;1.37;;;23.60;22.00;;;;;;2051917;62;20516;-66
2024/04/17 04:09:41;0.00;0.00;0.62;0.00;0.00;0.62;3.07;1.30;;;23.60;22.00;;;;;;2047034;62;21086;-66
2024/04/17 04:12:26;0.00;0.00;0.62;0.00;0.00;0.62;2.10;1.03;;;23.50;22.00;;;;;;2052235;62;20929;-66
2024/04/17 04:15:10;0.00;0.00;0.62;0.00;0.00;0.62;3.50;1.10;;;23.50;22.00;;;;;;2051964;62;20872;-66
2024/04/17 04:17:55;0.00;0.00;0.62;0.00;0.00;0.62;2.90;1.67;;;23.60;22.00;;;;;;2051701;62;20474;-66
2024/04/17 04:20:40;0.00;0.00;0.62;0.00;0.00;0.62;1.90;1.00;;;23.60;22.00;;;;;;2052106;62;20465;-66
2024/04/17 04:23:24;0.00;0.00;0.62;0.00;0.00;0.62;2.30;1.63;;;23.50;21.90;;;;;;2051212;62;20475;-65
2024/04/17 04:26:11;0.00;0.00;0.62;0.00;0.00;0.62;3.60;1.30;;;23.50;21.90;;;;;;2052047;62;20466;-66
2024/04/17 04:28:56;0.00;0.00;0.62;0.00;0.00;0.62;3.93;1.37;;;23.50;22.00;;;;;;2051782;62;20970;-66
2024/04/17 04:31:41;0.00;0.00;0.62;0.00;0.00;0.62;1.90;1.17;;;23.50;21.90;;;;;;2050755;62;20526;-66
2024/04/17 04:34:25;0.00;0.00;0.62;0.00;0.00;0.62;2.60;1.30;;;23.50;21.90;;;;;;2052236;62;20474;-65
2024/04/17 04:37:10;0.00;0.00;0.62;0.00;0.00;0.62;3.20;1.40;;;23.50;21.90;;;;;;2051911;62;20458;-65
2024/04/17 04:39:55;0.00;0.00;0.62;0.00;0.00;0.62;2.70;1.40;;;23.50;21.90;;;;;;2051522;62;20471;-66
2024/04/17 04:42:43;0.00;0.00;0.62;0.00;0.00;0.62;3.20;1.40;;;23.50;22.00;;;;;;2052020;62;20509;-66
2024/04/17 04:45:27;0.00;0.00;0.62;0.00;0.00;0.62;2.47;1.00;;;23.50;21.90;;;;;;2051319;54;20463;-67
2024/04/17 04:48:12;0.00;0.00;0.62;0.00;0.00;0.62;2.30;1.20;;;23.50;21.90;;;;;;2052232;62;20455;-66
2024/04/17 04:50:56;0.00;0.00;0.62;0.00;0.00;0.62;2.40;1.40;;;23.50;21.90;;;;;;2051627;62;20528;-66
2024/04/17 04:53:41;0.00;0.00;0.62;0.00;0.00;0.62;2.53;1.33;;;23.50;21.90;;;;;;2051474;62;21024;-66
2024/04/17 04:56:26;0.00;0.00;0.62;0.00;0.00;0.62;3.23;1.40;;;23.50;22.50;;;;;;2052131;62;20486;-66
2024/04/17 04:59:13;0.00;0.00;0.62;0.00;0.00;0.62;2.83;1.80;;;23.50;21.90;;;;;;2051665;62;20459;-65
2024/04/17 05:01:58;0.00;0.00;0.62;0.00;0.00;0.62;2.70;1.63;;;23.50;21.90;;;;;;2051482;62;20939;-66
2024/04/17 05:04:43;0.00;0.00;0.62;0.00;0.00;0.62;3.63;1.57;;;23.40;21.90;;;;;;2052074;62;20450;-66
2024/04/17 05:07:28;0.00;0.00;0.62;0.00;0.00;0.62;2.63;1.43;;;23.50;21.90;;;;;;2051570;62;20492;-66
2024/04/17 05:10:13;0.00;0.00;0.62;0.00;0.00;0.62;3.20;1.53;;;23.40;21.90;;;;;;2046904;62;20472;-67
2024/04/17 05:12:58;0.00;0.00;0.62;0.00;0.00;0.62;3.30;1.33;;;23.40;21.90;;;;;;2047003;62;20515;-66
2024/04/17 05:15:45;0.00;0.00;0.62;0.00;0.00;0.62;3.53;1.50;;;23.50;21.90;;;;;;2047949;62;20467;-66
2024/04/17 05:18:30;0.00;0.00;0.62;0.00;0.00;0.62;2.83;1.57;;;23.50;21.90;;;;;;2052122;62;20475;-65
2024/04/17 05:21:15;0.00;0.00;0.62;0.00;0.00;0.62;2.17;1.30;;;23.50;21.90;;;;;;2051765;62;20883;-66
2024/04/17 05:23:59;0.00;0.00;0.62;0.00;0.00;0.62;3.83;1.60;;;23.40;21.90;;;;;;2051728;62;20478;-67
2024/04/17 05:26:44;0.00;0.00;0.62;0.00;0.00;0.62;2.63;1.97;;;23.40;21.90;;;;;;2052012;62;21035;-66
2024/04/17 05:29:28;0.00;0.00;0.62;0.00;0.00;0.62;2.80;1.57;;;23.40;21.90;;;;;;2051624;62;21016;-66
2024/04/17 05:32:16;0.00;0.00;0.62;0.00;0.00;0.62;1.90;1.20;;;23.40;21.90;;;;;;2052227;62;21077;-66
2024/04/17 05:35:00;0.00;0.00;0.62;0.00;0.00;0.62;3.10;1.53;;;23.40;21.90;;;;;;2052140;62;20909;-65
2024/04/17 05:37:45;0.00;0.00;0.62;0.00;0.00;0.62;4.53;1.50;;;23.40;21.90;;;;;;2051553;62;20515;-64
2024/04/17 05:40:29;0.00;0.00;0.62;0.00;0.00;0.62;3.67;1.90;;;23.40;21.90;;;;;;2051926;62;21016;-65
2024/04/17 05:43:18;0.00;0.00;0.62;0.00;0.00;0.62;3.10;1.80;;;23.40;21.90;;;;;;2051869;62;20479;-65
2024/04/17 05:46:03;0.00;0.00;0.62;0.00;0.00;0.62;2.60;1.50;;;23.40;21.90;;;;;;2051382;62;21096;-65
2024/04/17 05:48:50;0.00;0.00;0.62;0.00;0.00;0.62;2.60;1.40;;;23.40;21.90;;;;;;2052087;62;20953;-65
2024/04/17 05:51:35;0.00;0.00;0.62;0.00;0.00;0.62;3.67;1.57;;;23.40;21.90;;;;;;2051930;62;20467;-66
2024/04/17 05:54:20;0.00;0.00;0.62;0.00;0.00;0.62;2.57;1.10;;;23.40;21.90;;;;;;2051508;62;20516;-66
2024/04/17 05:57:05;0.00;0.00;0.62;0.00;0.00;0.62;2.37;1.40;;;23.40;21.90;;;;;;2052135;62;20513;-65
2024/04/17 05:59:49;0.00;0.00;0.62;0.00;0.00;0.62;3.20;1.77;;;23.40;21.90;;;;;;2050849;62;20508;-66
2024/04/17 06:02:34;0.00;0.00;0.62;0.00;0.00;0.62;2.77;1.73;;;23.40;21.80;;;;;;2052112;62;21093;-64
2024/04/17 06:05:22;0.00;0.00;0.62;0.00;0.00;0.62;3.10;1.70;;;23.40;21.90;;;;;;2051802;62;20470;-65
2024/04/17 06:08:07;0.00;0.00;0.62;0.00;0.00;0.62;2.90;1.70;;;23.40;21.80;;;;;;2051322;62;20521;-66
2024/04/17 06:10:51;0.00;0.00;0.62;0.00;0.00;0.62;5.47;1.77;;;23.40;21.80;;;;;;2052031;62;20478;-67
2024/04/17 06:13:36;0.00;0.00;0.62;0.00;0.00;0.62;3.70;2.73;;;23.40;21.80;;;;;;2051777;62;20517;-66
2024/04/17 06:16:21;0.00;0.00;0.62;0.00;0.00;0.62;2.80;1.80;;;23.40;21.80;;;;;;2051351;62;20540;-66
2024/04/17 06:19:05;0.00;0.00;0.62;0.00;0.00;0.62;3.07;1.87;;;23.40;21.90;;;;;;2051797;62;20863;-65
2024/04/17 06:21:52;0.00;0.00;0.62;0.00;0.00;0.62;7.77;2.10;;;23.40;21.90;;;;;;2051125;62;20872;-66
2024/04/17 06:24:37;0.00;0.00;0.62;0.00;0.00;0.62;4.20;2.17;;;23.40;21.90;;;;;;2051820;62;20500;-66
2024/04/17 06:27:22;0.00;0.00;0.62;0.00;0.00;0.62;2.53;1.60;;;23.40;21.90;;;;;;2051839;62;20862;-64
2024/04/17 06:30:09;0.00;0.00;0.62;0.00;0.00;0.62;3.23;1.80;;;23.40;21.80;;;;;;2051257;62;20933;-65
2024/04/17 06:32:53;0.00;0.00;0.62;0.00;0.00;0.62;5.83;2.13;;;23.40;21.90;;;;;;2051917;62;20458;-67
2024/04/17 06:35:38;0.00;0.00;0.62;0.00;0.00;0.62;4.13;2.00;;;23.40;21.90;;;;;;2050033;62;20532;-66
2024/04/17 06:38:25;0.00;0.00;0.62;0.00;0.00;0.62;2.90;1.87;;;23.40;21.90;;;;;;2051422;62;20528;-66
2024/04/17 06:41:10;0.00;0.00;0.62;0.00;0.00;0.62;2.67;1.97;;;23.40;21.90;;;;;;2051703;62;20487;-66
2024/04/17 06:43:54;0.00;0.00;0.62;0.00;0.00;0.62;2.93;1.97;;;23.40;21.90;;;;;;2050895;62;20561;-67
2024/04/17 06:46:39;0.00;0.00;0.62;0.00;0.00;0.62;3.83;2.00;;;23.40;21.80;;;;;;2051924;62;20474;-67
2024/04/17 06:49:25;0.00;0.00;0.62;0.00;0.00;0.62;3.33;2.00;;;23.40;21.80;;;;;;2047253;62;21019;-66
2024/04/17 06:52:10;0.00;0.00;0.62;0.00;0.00;0.62;4.00;2.00;;;23.40;21.80;;;;;;2051249;62;20923;-66
2024/04/17 06:54:57;0.00;0.00;0.62;0.00;0.00;0.62;4.20;2.30;;;23.40;21.80;;;;;;2052025;62;21103;-67
2024/04/17 06:57:41;0.00;0.00;0.62;0.00;0.00;0.62;4.40;2.33;;;23.50;21.90;;;;;;2051516;62;20520;-66
2024/04/17 07:00:34;0.00;0.00;0.62;0.00;0.00;0.62;4.13;2.43;;;23.40;21.80;;;;;;2051131;62;20857;-66
2024/04/17 07:03:19;0.00;0.00;0.62;0.00;0.00;0.62;5.93;2.67;;;23.40;21.90;;;;;;2051940;62;20530;-65
2024/04/17 07:06:05;0.00;0.00;0.62;0.00;0.00;0.62;4.47;2.47;;;23.50;21.90;;;;;;2050856;62;20868;-65
2024/04/17 07:08:50;0.00;0.00;0.62;0.00;0.00;0.62;4.33;2.07;;;23.40;21.90;;;;;;2051909;62;20467;-65
2024/04/17 07:11:37;0.00;0.00;0.62;0.00;0.00;0.62;2.97;2.27;;;23.40;21.80;;;;;;2051602;62;20500;-66
2024/04/17 07:14:22;0.00;0.00;0.62;0.00;0.00;0.62;3.10;1.87;;;23.50;21.90;;;;;;2051353;62;20531;-67
2024/04/17 07:17:07;0.00;0.00;0.62;0.00;0.00;0.62;4.40;2.07;;;23.50;21.90;;;;;;2052143;62;20458;-66
2024/04/17 07:19:51;0.00;0.00;0.62;0.00;0.00;0.62;3.70;2.10;;;23.50;21.90;;;;;;2051501;62;20568;-66
2024/04/17 07:22:36;0.00;0.00;0.62;0.00;0.00;0.62;4.23;2.33;;;23.50;21.90;;;;;;2051411;62;20924;-66
2024/04/17 07:25:22;0.00;0.00;0.62;0.00;0.00;0.62;3.47;2.20;;;23.50;21.90;;;;;;2051736;62;20466;-67
2024/04/17 07:28:09;0.00;0.00;0.62;0.00;0.00;0.62;4.37;2.20;;;23.50;21.90;;;;;;2051402;62;20900;-67
2024/04/17 07:30:54;0.00;0.00;0.62;0.00;0.00;0.62;4.73;2.40;;;23.50;21.90;;;;;;2051714;62;20463;-66
2024/04/17 07:33:39;0.00;0.00;0.62;0.00;0.00;0.62;3.53;2.20;;;23.50;21.90;;;;;;2051843;62;20470;-67
2024/04/17 07:36:23;0.00;0.00;0.62;0.00;0.00;0.62;4.23;1.80;;;23.50;21.90;;;;;;2051184;62;20598;-66
2024/04/17 07:39:10;0.00;0.00;0.62;0.00;0.00;0.62;4.30;2.43;;;23.50;21.90;;;;;;2051765;62;20852;-66
2024/04/17 07:41:55;0.00;0.00;0.62;0.00;0.00;0.62;3.80;2.23;;;23.50;21.90;;;;;;2051581;62;20462;-66
2024/04/17 07:44:46;0.00;0.00;0.62;0.00;0.00;0.62;4.30;2.30;;;23.50;21.90;;;;;;2051054;62;20528;-66
2024/04/17 07:47:31;0.00;0.00;0.62;0.00;0.00;0.62;4.80;2.30;;;23.50;21.90;;;;;;2051854;62;20496;-66
2024/04/17 07:50:16;0.00;0.00;0.62;0.00;0.00;0.62;3.10;1.70;;;23.50;21.90;;;;;;2051307;62;20474;-65
2024/04/17 07:53:01;0.00;0.00;0.62;0.00;0.00;0.62;4.40;2.20;;;23.50;21.90;;;;;;2046732;62;20562;-66
2024/04/17 07:55:46;0.00;0.00;0.62;0.00;0.00;0.62;3.20;2.40;;;23.50;21.90;;;;;;2046805;62;20452;-66
2024/04/17 07:58:30;0.00;0.00;0.62;0.00;0.00;0.62;5.07;2.10;;;23.50;21.90;;;;;;2047359;62;20471;-67
2024/04/17 08:01:18;0.00;0.00;0.62;0.00;0.00;0.62;3.60;2.30;;;23.50;21.90;;;;;;2051870;62;20531;-66
2024/04/17 08:04:03;0.00;0.00;0.62;0.00;0.00;0.62;4.70;2.20;;;23.50;21.90;;;;;;2051973;62;20470;-66
2024/04/17 08:06:47;0.00;0.00;0.62;0.00;0.00;0.62;3.70;1.80;;;23.50;21.90;;;;;;2051243;62;20884;-66
2024/04/17 08:09:32;0.00;0.00;0.62;0.00;0.00;0.62;5.40;2.50;;;23.50;21.90;;;;;;2052124;62;20861;-65
2024/04/17 08:12:18;0.00;0.00;0.62;0.00;0.00;0.62;4.90;3.00;;;23.50;21.90;;;;;;2051768;62;20552;-66
2024/04/17 08:15:03;0.00;0.00;0.62;0.00;0.00;0.62;3.90;2.63;;;23.50;21.90;;;;;;2046749;62;20463;-64
2024/04/17 08:17:50;0.00;0.00;0.62;0.00;0.00;0.62;6.83;2.93;;;23.50;21.90;;;;;;2042973;62;20909;-66
2024/04/17 08:20:35;0.00;0.00;0.62;0.00;0.00;0.62;5.30;2.60;;;23.50;21.90;;;;;;2047441;62;20501;-66
2024/04/17 08:23:20;0.00;0.00;0.62;0.00;0.00;0.62;3.67;2.40;;;23.50;21.90;;;;;;2051971;62;20524;-65
2024/04/17 08:26:04;0.00;0.00;0.62;0.00;0.00;0.62;4.03;2.20;;;23.50;21.90;;;;;;2051850;62;21040;-66
2024/04/17 08:28:49;0.00;0.00;0.62;0.00;0.00;0.62;5.87;2.90;;;23.60;22.00;;;;;;2051429;62;21012;-66
2024/04/17 08:31:34;0.00;0.00;0.62;0.00;0.00;0.62;3.03;2.00;;;23.50;21.90;;;;;;2052228;62;20462;-66
2024/04/17 08:34:21;0.00;0.00;0.62;0.00;0.00;0.62;3.03;1.80;;;23.60;22.00;;;;;;2051831;62;20514;-66
2024/04/17 08:37:06;0.00;0.00;0.62;0.00;0.00;0.62;4.20;2.50;;;23.60;22.00;;;;;;2051551;62;20532;-66
2024/04/17 08:39:51;0.00;0.00;0.62;0.00;0.00;0.62;4.20;2.50;;;23.60;22.00;;;;;;2051901;62;20455;-66
2024/04/17 08:42:36;0.00;0.00;0.62;0.00;0.00;0.62;4.70;2.67;;;23.60;22.00;;;;;;2051155;62;21598;-66
2024/04/17 08:45:30;0.00;0.00;0.62;0.00;0.00;0.62;5.07;2.83;;;23.60;22.00;;;;;;2052240;62;20467;-66
2024/04/17 08:48:16;0.00;0.00;0.62;0.00;0.00;0.62;3.90;2.50;;;23.60;22.00;;;;;;2051856;62;20532;-65
2024/04/17 08:51:03;0.00;0.00;0.62;0.00;0.00;0.62;3.37;2.63;;;23.60;22.00;;;;;;2051269;62;20501;-66
2024/04/17 08:53:48;0.00;0.00;0.62;0.00;0.00;0.62;6.60;3.00;;;23.60;22.00;;;;;;2051906;62;20482;-66
2024/04/17 08:56:33;0.00;0.00;0.62;0.00;0.00;0.62;4.17;3.00;;;23.60;22.00;;;;;;2051634;62;20474;-66
2024/04/17 08:59:18;0.00;0.00;0.62;0.00;0.00;0.62;3.57;2.43;;;23.60;22.00;;;;;;2051564;62;20482;-67
2024/04/17 09:02:03;0.00;0.00;0.62;0.00;0.00;0.62;4.97;3.10;;;23.60;22.00;;;;;;2052111;62;20996;-66
2024/04/17 09:04:48;0.00;0.00;0.62;0.00;0.00;0.62;5.33;2.47;;;23.60;22.00;;;;;;2051000;62;20462;-66
2024/04/17 09:07:38;0.00;0.00;0.62;0.00;0.00;0.62;4.03;3.10;;;23.60;22.00;;;;;;2052273;62;20459;-65
2024/04/17 09:10:23;0.00;0.00;0.62;0.00;0.00;0.62;4.60;2.73;;;23.60;22.00;;;;;;2051732;62;21004;-66
2024/04/17 09:13:08;0.00;0.00;0.62;0.00;0.00;0.62;5.10;3.23;;;23.60;22.00;;;;;;2051430;62;20470;-66
2024/04/17 09:15:53;0.00;0.00;0.62;0.00;0.00;0.62;3.30;2.63;;;23.60;22.00;;;;;;2052108;62;20470;-66
2024/04/17 09:18:37;0.00;0.00;0.62;0.00;0.00;0.62;4.00;2.60;;;23.60;22.00;;;;;;2051676;62;20528;-67
2024/04/17 09:21:22;0.00;0.00;0.62;0.00;0.00;0.62;6.13;3.20;;;23.60;21.90;;;;;;2051526;62;20512;-66
2024/04/17 09:24:10;0.00;0.00;0.62;0.00;0.00;0.62;6.30;2.83;;;23.60;21.90;;;;;;2047820;62;20471;-66
2024/04/17 09:26:55;0.00;0.00;0.62;0.00;0.00;0.62;3.67;3.10;;;23.60;22.00;;;;;;2050990;62;20454;-67
2024/04/17 09:29:40;0.00;0.00;0.62;0.00;0.00;0.62;3.23;2.77;;;23.60;22.00;;;;;;2052001;62;20516;-67
2024/04/17 09:32:24;0.00;0.00;0.62;0.00;0.00;0.62;4.50;2.83;;;23.60;22.00;;;;;;2051932;62;20759;-65
2024/04/17 09:35:11;0.00;0.00;0.62;0.00;0.00;0.62;4.37;2.60;;;23.60;22.00;;;;;;2051528;62;20462;-66
2024/04/17 09:37:56;0.00;0.00;0.62;0.00;0.00;0.62;3.03;2.27;;;23.60;22.00;;;;;;2052079;62;20532;-66
2024/04/17 09:40:45;0.00;0.00;0.62;0.00;0.00;0.62;4.70;2.90;;;23.60;21.90;;;;;;2051659;62;20458;-66
2024/04/17 09:43:29;0.00;0.00;0.62;0.00;0.00;0.62;4.47;2.70;;;23.60;21.90;;;;;;2051455;62;20875;-66
2024/04/17 09:46:15;0.00;0.00;0.62;0.00;0.00;0.62;3.37;2.43;;;23.70;21.90;;;;;;2052014;62;20474;-66
2024/04/17 09:49:10;0.00;0.00;0.62;0.00;0.00;0.62;3.70;2.30;;;23.70;21.90;;;;;;2050875;62;20459;-66
2024/04/17 09:51:59;0.00;0.00;0.62;0.00;0.00;0.62;3.57;2.40;;;23.70;21.90;;;;;;2052005;62;20496;-66
2024/04/17 09:54:45;0.00;0.00;0.62;0.00;0.00;0.62;3.70;2.80;;;23.70;21.90;;;;;;2051912;62;20459;-64
2024/04/17 09:57:33;0.00;0.00;0.62;0.00;0.00;0.62;3.67;2.80;;;23.70;21.90;;;;;;2049075;62;20907;-66
2024/04/17 10:00:18;0.00;0.00;0.62;0.00;0.00;0.62;4.20;2.63;;;23.70;21.80;;;;;;2051884;62;20467;-67
2024/04/17 10:03:06;0.00;0.00;0.62;0.00;0.00;0.62;3.43;2.60;;;23.70;21.80;;;;;;2051750;62;20877;-67
2024/04/17 10:05:51;0.00;0.00;0.62;0.00;0.00;0.62;2.90;2.20;;;23.70;21.80;;;;;;2051455;62;20478;-66
2024/04/17 10:08:37;0.00;0.00;0.62;0.00;0.00;0.62;4.10;2.50;;;23.70;21.80;;;;;;2052028;62;20459;-66
2024/04/17 10:11:26;0.00;0.00;0.62;0.00;0.00;0.62;3.60;2.37;;;23.70;22.40;;;;;;2051058;62;20523;-66
2024/04/17 10:14:14;0.00;0.00;0.62;0.00;0.00;0.62;3.23;2.50;;;23.70;22.40;;;;;;2052021;62;21060;-66
2024/04/17 10:16:59;0.00;0.00;0.62;0.00;0.00;0.62;4.70;2.73;;;23.70;21.90;;;;;;2051686;62;20500;-66
2024/04/17 10:19:50;0.00;0.00;0.62;0.00;0.00;0.62;3.50;2.20;;;23.70;21.80;;;;;;2051076;62;20463;-67
2024/04/17 10:22:37;0.00;0.00;0.62;0.00;0.00;0.62;2.77;1.97;;;23.70;21.80;;;;;;2052161;62;20466;-66
2024/04/17 10:25:26;0.00;0.00;0.62;0.00;0.00;0.62;3.03;2.20;;;23.80;21.80;;;;;;2051488;62;20463;-66
2024/04/17 10:28:12;0.00;0.00;0.62;0.00;0.00;0.62;2.93;2.07;;;23.80;21.80;;;;;;2051579;62;20899;-66
2024/04/17 10:31:01;0.00;0.00;0.62;0.00;0.00;0.62;4.60;2.70;;;23.80;21.70;;;;;;2051800;62;20463;-66
2024/04/17 10:33:46;0.00;0.00;0.62;0.00;0.00;0.62;3.40;1.73;;;23.80;21.70;;;;;;2051542;62;21096;-66
2024/04/17 10:36:33;0.00;0.00;0.62;0.00;0.00;0.62;2.43;1.60;;;23.80;21.60;;;;;;2051928;62;20463;-66
2024/04/17 10:39:17;0.00;0.00;0.62;0.00;0.00;0.62;2.60;1.90;;;23.80;21.60;;;;;;2051637;62;20465;-65
2024/04/17 10:42:04;0.00;0.00;0.62;0.00;0.00;0.62;1.80;1.40;;;23.80;21.50;;;;;;2051388;62;20508;-65
2024/04/17 10:44:50;0.00;0.00;0.62;0.00;0.00;0.62;3.00;1.60;;;23.80;21.50;;;;;;2051997;62;20536;-66
2024/04/17 10:47:38;0.00;0.00;0.62;0.00;0.00;0.62;4.40;1.70;;;23.80;21.40;;;;;;2051527;62;20520;-64
2024/04/17 10:50:24;0.00;0.00;0.62;0.00;0.00;0.62;2.80;1.87;;;23.80;21.40;;;;;;2051464;62;20505;-66
2024/04/17 10:53:10;0.00;0.00;0.62;0.00;0.00;0.62;2.50;1.90;;;23.80;21.40;;;;;;2051872;62;20520;-66